sensor_id;sensor_type;location;lat;lon;timestamp;pressure;altitude;pressure_sealevel;temperature;humidity
36248;BME280;22287;50.824;5.644;2023-02-15T00:00:01;102080.66;;;4.83;67.31
36248;BME280;22287;50.824;5.644;2023-02-15T00:02:30;102083.00;;;4.68;67.69
36248;BME280;22287;50.824;5.644;2023-02-15T00:04:57;102066.63;;;4.76;67.74
36248;BME280;22287;50.824;5.644;2023-02-15T00:07:24;102075.19;;;4.86;67.34
36248;BME280;22287;50.824;5.644;2023-02-15T00:09:51;102070.94;;;4.80;67.50
36248;BME280;22287;50.824;5.644;2023-02-15T00:12:18;102073.72;;;4.77;67.06
36248;BME280;22287;50.824;5.644;2023-02-15T00:14:44;102067.47;;;5.00;66.14
36248;BME280;22287;50.824;5.644;2023-02-15T00:17:12;102070.63;;;4.88;66.56
36248;BME280;22287;50.824;5.644;2023-02-15T00:19:38;102064.47;;;4.86;67.12
36248;BME280;22287;50.824;5.644;2023-02-15T00:22:07;102070.41;;;4.70;67.62
36248;BME280;22287;50.824;5.644;2023-02-15T00:24:33;102073.28;;;4.66;67.54
36248;BME280;22287;50.824;5.644;2023-02-15T00:27:00;102066.81;;;4.93;67.80
36248;BME280;22287;50.824;5.644;2023-02-15T00:29:27;102057.59;;;4.79;67.33
36248;BME280;22287;50.824;5.644;2023-02-15T00:31:54;102063.44;;;4.66;67.68
36248;BME280;22287;50.824;5.644;2023-02-15T00:34:24;102057.78;;;4.51;67.34
36248;BME280;22287;50.824;5.644;2023-02-15T00:36:51;102064.16;;;4.48;68.70
36248;BME280;22287;50.824;5.644;2023-02-15T00:39:19;102051.84;;;4.44;68.88
36248;BME280;22287;50.824;5.644;2023-02-15T00:41:46;102052.75;;;4.66;68.00
36248;BME280;22287;50.824;5.644;2023-02-15T00:44:14;102050.88;;;4.68;67.45
36248;BME280;22287;50.824;5.644;2023-02-15T00:46:41;102045.38;;;4.71;67.23
36248;BME280;22287;50.824;5.644;2023-02-15T00:49:08;102048.50;;;4.61;67.54
36248;BME280;22287;50.824;5.644;2023-02-15T00:51:38;102042.50;;;4.76;66.84
36248;BME280;22287;50.824;5.644;2023-02-15T00:54:06;102047.97;;;4.51;67.85
36248;BME280;22287;50.824;5.644;2023-02-15T00:56:33;102053.53;;;4.68;67.72
36248;BME280;22287;50.824;5.644;2023-02-15T00:58:59;102052.97;;;4.60;67.57
36248;BME280;22287;50.824;5.644;2023-02-15T01:01:26;102048.66;;;4.56;66.92
36248;BME280;22287;50.824;5.644;2023-02-15T01:03:53;102043.06;;;4.62;67.61
36248;BME280;22287;50.824;5.644;2023-02-15T01:06:20;102050.97;;;4.65;68.03
36248;BME280;22287;50.824;5.644;2023-02-15T01:08:47;102042.72;;;4.71;67.53
36248;BME280;22287;50.824;5.644;2023-02-15T01:11:20;102043.19;;;4.59;67.10
36248;BME280;22287;50.824;5.644;2023-02-15T01:13:52;102046.22;;;4.50;66.95
36248;BME280;22287;50.824;5.644;2023-02-15T01:16:20;102043.53;;;4.50;67.72
36248;BME280;22287;50.824;5.644;2023-02-15T01:18:47;102041.34;;;4.38;66.91
36248;BME280;22287;50.824;5.644;2023-02-15T01:21:20;102037.13;;;4.54;66.18
36248;BME280;22287;50.824;5.644;2023-02-15T01:23:47;102039.63;;;4.14;66.75
36248;BME280;22287;50.824;5.644;2023-02-15T01:26:15;102030.72;;;4.13;67.49
36248;BME280;22287;50.824;5.644;2023-02-15T01:28:43;102028.19;;;4.32;67.09
36248;BME280;22287;50.824;5.644;2023-02-15T01:31:20;102030.88;;;4.32;67.04
36248;BME280;22287;50.824;5.644;2023-02-15T01:33:48;102031.44;;;4.17;66.69
36248;BME280;22287;50.824;5.644;2023-02-15T01:36:15;102023.94;;;4.03;66.51
36248;BME280;22287;50.824;5.644;2023-02-15T01:38:43;102024.09;;;4.00;66.85
36248;BME280;22287;50.824;5.644;2023-02-15T01:41:10;102026.50;;;3.83;67.64
36248;BME280;22287;50.824;5.644;2023-02-15T01:43:57;102013.75;;;3.90;67.76
36248;BME280;22287;50.824;5.644;2023-02-15T01:46:35;102010.97;;;3.93;67.12
36248;BME280;22287;50.824;5.644;2023-02-15T01:49:14;102010.22;;;3.89;67.37
36248;BME280;22287;50.824;5.644;2023-02-15T01:51:43;102012.97;;;3.63;68.19
36248;BME280;22287;50.824;5.644;2023-02-15T01:54:27;102012.88;;;3.66;67.87
36248;BME280;22287;50.824;5.644;2023-02-15T01:57:01;102012.78;;;3.68;66.64
36248;BME280;22287;50.824;5.644;2023-02-15T01:59:30;102008.72;;;3.33;68.46
36248;BME280;22287;50.824;5.644;2023-02-15T02:01:59;102003.78;;;3.45;68.83
36248;BME280;22287;50.824;5.644;2023-02-15T02:04:33;102004.94;;;3.63;68.29
36248;BME280;22287;50.824;5.644;2023-02-15T02:07:02;102001.97;;;3.47;68.12
36248;BME280;22287;50.824;5.644;2023-02-15T02:09:31;101998.28;;;3.25;69.14
36248;BME280;22287;50.824;5.644;2023-02-15T02:11:58;101994.94;;;3.45;68.95
36248;BME280;22287;50.824;5.644;2023-02-15T02:14:26;101997.22;;;3.31;68.35
36248;BME280;22287;50.824;5.644;2023-02-15T02:17:16;101990.69;;;3.39;68.52
36248;BME280;22287;50.824;5.644;2023-02-15T02:20:15;101987.53;;;3.51;68.09
36248;BME280;22287;50.824;5.644;2023-02-15T02:39:17;101962.75;;;2.97;69.01
36248;BME280;22287;50.824;5.644;2023-02-15T02:47:16;101963.34;;;3.31;68.74
36248;BME280;22287;50.824;5.644;2023-02-15T02:49:45;101957.84;;;3.36;67.64
36248;BME280;22287;50.824;5.644;2023-02-15T02:52:38;101950.59;;;3.39;67.38
36248;BME280;22287;50.824;5.644;2023-02-15T02:57:46;101948.38;;;3.01;67.96
36248;BME280;22287;50.824;5.644;2023-02-15T03:00:17;101950.84;;;2.55;69.73
36248;BME280;22287;50.824;5.644;2023-02-15T03:02:47;101954.59;;;2.75;69.26
36248;BME280;22287;50.824;5.644;2023-02-15T03:05:19;101950.53;;;2.64;70.57
36248;BME280;22287;50.824;5.644;2023-02-15T03:07:50;101950.31;;;2.96;69.09
36248;BME280;22287;50.824;5.644;2023-02-15T03:10:20;101937.50;;;2.81;69.23
36248;BME280;22287;50.824;5.644;2023-02-15T03:12:49;101941.44;;;2.95;69.27
36248;BME280;22287;50.824;5.644;2023-02-15T03:15:20;101937.06;;;2.93;68.74
36248;BME280;22287;50.824;5.644;2023-02-15T03:17:53;101938.41;;;2.80;69.80
36248;BME280;22287;50.824;5.644;2023-02-15T03:20:33;101945.81;;;2.72;69.27
36248;BME280;22287;50.824;5.644;2023-02-15T03:23:06;101941.34;;;2.72;69.62
36248;BME280;22287;50.824;5.644;2023-02-15T03:25:40;101944.00;;;2.98;69.52
36248;BME280;22287;50.824;5.644;2023-02-15T03:28:13;101929.75;;;3.24;67.92
36248;BME280;22287;50.824;5.644;2023-02-15T03:30:44;101931.72;;;2.93;67.84
36248;BME280;22287;50.824;5.644;2023-02-15T03:33:13;101930.28;;;2.84;68.41
36248;BME280;22287;50.824;5.644;2023-02-15T03:35:46;101921.94;;;3.18;67.68
36248;BME280;22287;50.824;5.644;2023-02-15T03:38:20;101922.91;;;3.17;66.79
36248;BME280;22287;50.824;5.644;2023-02-15T03:40:53;101921.69;;;2.75;68.84
36248;BME280;22287;50.824;5.644;2023-02-15T03:43:51;101925.09;;;2.54;69.33
36248;BME280;22287;50.824;5.644;2023-02-15T03:46:27;101926.72;;;2.58;69.73
36248;BME280;22287;50.824;5.644;2023-02-15T03:49:03;101927.31;;;2.67;69.12
36248;BME280;22287;50.824;5.644;2023-02-15T03:51:35;101914.56;;;2.75;68.78
36248;BME280;22287;50.824;5.644;2023-02-15T03:54:14;101911.22;;;2.95;68.37
36248;BME280;22287;50.824;5.644;2023-02-15T03:57:07;101910.00;;;2.79;67.52
36248;BME280;22287;50.824;5.644;2023-02-15T03:59:53;101913.47;;;2.81;68.07
36248;BME280;22287;50.824;5.644;2023-02-15T04:02:47;101904.00;;;2.72;68.96
36248;BME280;22287;50.824;5.644;2023-02-15T04:05:19;101907.34;;;2.79;68.35
36248;BME280;22287;50.824;5.644;2023-02-15T04:07:46;101900.97;;;2.57;68.95
36248;BME280;22287;50.824;5.644;2023-02-15T04:10:13;101912.84;;;2.47;69.21
36248;BME280;22287;50.824;5.644;2023-02-15T04:12:58;101907.31;;;2.53;69.19
36248;BME280;22287;50.824;5.644;2023-02-15T04:15:25;101903.13;;;2.72;68.29
36248;BME280;22287;50.824;5.644;2023-02-15T04:18:10;101897.78;;;2.72;67.85
36248;BME280;22287;50.824;5.644;2023-02-15T04:20:36;101898.13;;;2.61;68.66
36248;BME280;22287;50.824;5.644;2023-02-15T04:23:21;101907.69;;;2.93;67.53
36248;BME280;22287;50.824;5.644;2023-02-15T04:26:07;101908.28;;;3.03;66.75
36248;BME280;22287;50.824;5.644;2023-02-15T04:28:33;101906.34;;;2.81;67.24
36248;BME280;22287;50.824;5.644;2023-02-15T04:33:46;101908.75;;;2.89;67.24
36248;BME280;22287;50.824;5.644;2023-02-15T04:36:14;101908.66;;;2.92;66.77
36248;BME280;22287;50.824;5.644;2023-02-15T04:38:40;101903.25;;;2.93;66.25
36248;BME280;22287;50.824;5.644;2023-02-15T04:41:07;101897.97;;;3.17;66.05
36248;BME280;22287;50.824;5.644;2023-02-15T04:43:35;101894.16;;;2.99;66.59
36248;BME280;22287;50.824;5.644;2023-02-15T04:46:01;101904.44;;;2.85;67.39
36248;BME280;22287;50.824;5.644;2023-02-15T04:48:29;101900.44;;;2.98;66.66
36248;BME280;22287;50.824;5.644;2023-02-15T04:50:56;101889.00;;;2.93;66.30
36248;BME280;22287;50.824;5.644;2023-02-15T04:53:22;101890.97;;;2.88;67.33
36248;BME280;22287;50.824;5.644;2023-02-15T04:55:49;101888.81;;;2.99;66.56
36248;BME280;22287;50.824;5.644;2023-02-15T04:58:16;101890.44;;;2.78;66.01
36248;BME280;22287;50.824;5.644;2023-02-15T05:00:43;101890.69;;;2.45;68.25
36248;BME280;22287;50.824;5.644;2023-02-15T05:03:10;101873.22;;;2.62;67.42
36248;BME280;22287;50.824;5.644;2023-02-15T05:05:36;101882.03;;;2.64;67.57
36248;BME280;22287;50.824;5.644;2023-02-15T05:08:03;101879.41;;;2.36;67.59
36248;BME280;22287;50.824;5.644;2023-02-15T05:10:30;101880.50;;;2.29;68.24
36248;BME280;22287;50.824;5.644;2023-02-15T05:12:56;101889.13;;;2.37;67.54
36248;BME280;22287;50.824;5.644;2023-02-15T05:15:23;101881.78;;;2.46;68.04
36248;BME280;22287;50.824;5.644;2023-02-15T05:17:50;101883.41;;;2.76;67.47
36248;BME280;22287;50.824;5.644;2023-02-15T05:20:17;101882.44;;;2.78;67.42
36248;BME280;22287;50.824;5.644;2023-02-15T05:22:45;101886.78;;;2.55;67.67
36248;BME280;22287;50.824;5.644;2023-02-15T05:25:12;101890.16;;;2.86;66.73
36248;BME280;22287;50.824;5.644;2023-02-15T05:27:57;101884.75;;;2.36;67.80
36248;BME280;22287;50.824;5.644;2023-02-15T05:30:42;101889.97;;;2.40;68.27
36248;BME280;22287;50.824;5.644;2023-02-15T05:33:09;101885.06;;;2.54;67.88
36248;BME280;22287;50.824;5.644;2023-02-15T05:35:36;101882.44;;;2.52;67.20
36248;BME280;22287;50.824;5.644;2023-02-15T05:38:03;101877.75;;;2.32;67.35
36248;BME280;22287;50.824;5.644;2023-02-15T05:40:30;101871.81;;;2.51;66.90
36248;BME280;22287;50.824;5.644;2023-02-15T05:42:57;101877.09;;;1.98;68.14
36248;BME280;22287;50.824;5.644;2023-02-15T05:45:23;101881.31;;;2.05;68.39
36248;BME280;22287;50.824;5.644;2023-02-15T05:47:50;101873.31;;;2.05;67.86
36248;BME280;22287;50.824;5.644;2023-02-15T05:50:18;101878.72;;;2.02;67.66
36248;BME280;22287;50.824;5.644;2023-02-15T05:52:46;101881.16;;;1.82;68.54
36248;BME280;22287;50.824;5.644;2023-02-15T05:55:13;101885.75;;;1.77;68.49
36248;BME280;22287;50.824;5.644;2023-02-15T05:57:39;101885.94;;;1.71;68.87
36248;BME280;22287;50.824;5.644;2023-02-15T06:00:07;101888.69;;;1.68;68.97
36248;BME280;22287;50.824;5.644;2023-02-15T06:02:39;101884.59;;;1.86;68.93
36248;BME280;22287;50.824;5.644;2023-02-15T06:05:07;101886.97;;;1.95;68.64
36248;BME280;22287;50.824;5.644;2023-02-15T06:07:33;101880.38;;;1.78;68.07
36248;BME280;22287;50.824;5.644;2023-02-15T06:10:00;101877.75;;;1.77;68.14
36248;BME280;22287;50.824;5.644;2023-02-15T06:12:27;101882.34;;;1.72;68.20
36248;BME280;22287;50.824;5.644;2023-02-15T06:14:54;101877.34;;;1.61;67.65
36248;BME280;22287;50.824;5.644;2023-02-15T06:17:21;101873.88;;;1.58;68.40
36248;BME280;22287;50.824;5.644;2023-02-15T06:19:48;101877.44;;;1.58;68.26
36248;BME280;22287;50.824;5.644;2023-02-15T06:22:14;101877.91;;;1.43;68.61
36248;BME280;22287;50.824;5.644;2023-02-15T06:24:41;101873.97;;;1.26;69.36
36248;BME280;22287;50.824;5.644;2023-02-15T06:27:10;101878.41;;;1.25;69.48
36248;BME280;22287;50.824;5.644;2023-02-15T06:29:36;101877.97;;;1.69;68.14
36248;BME280;22287;50.824;5.644;2023-02-15T06:32:04;101885.97;;;1.40;68.01
36248;BME280;22287;50.824;5.644;2023-02-15T06:34:31;101878.03;;;1.68;68.24
36248;BME280;22287;50.824;5.644;2023-02-15T06:36:58;101875.91;;;1.50;68.60
36248;BME280;22287;50.824;5.644;2023-02-15T06:39:25;101875.66;;;1.59;67.42
36248;BME280;22287;50.824;5.644;2023-02-15T06:41:52;101880.75;;;1.36;68.54
36248;BME280;22287;50.824;5.644;2023-02-15T06:44:19;101878.63;;;1.48;68.23
36248;BME280;22287;50.824;5.644;2023-02-15T06:46:45;101880.19;;;1.55;68.74
36248;BME280;22287;50.824;5.644;2023-02-15T06:49:12;101876.13;;;1.11;69.27
36248;BME280;22287;50.824;5.644;2023-02-15T06:51:39;101880.00;;;1.32;68.89
36248;BME280;22287;50.824;5.644;2023-02-15T06:54:06;101876.63;;;1.55;68.66
36248;BME280;22287;50.824;5.644;2023-02-15T06:56:33;101875.81;;;1.22;69.81
36248;BME280;22287;50.824;5.644;2023-02-15T06:58:59;101872.19;;;1.26;69.18
36248;BME280;22287;50.824;5.644;2023-02-15T07:01:26;101876.94;;;1.15;70.60
36248;BME280;22287;50.824;5.644;2023-02-15T07:03:53;101878.38;;;1.27;69.71
36248;BME280;22287;50.824;5.644;2023-02-15T07:06:19;101876.19;;;1.70;68.50
36248;BME280;22287;50.824;5.644;2023-02-15T07:08:46;101863.06;;;1.64;68.42
36248;BME280;22287;50.824;5.644;2023-02-15T07:11:13;101868.28;;;1.67;68.64
36248;BME280;22287;50.824;5.644;2023-02-15T07:14:18;101871.69;;;1.43;68.75
36248;BME280;22287;50.824;5.644;2023-02-15T07:16:44;101873.78;;;1.62;69.43
36248;BME280;22287;50.824;5.644;2023-02-15T07:19:11;101871.59;;;1.46;69.74
36248;BME280;22287;50.824;5.644;2023-02-15T07:21:38;101868.66;;;1.55;69.65
36248;BME280;22287;50.824;5.644;2023-02-15T07:24:05;101867.56;;;1.62;68.54
36248;BME280;22287;50.824;5.644;2023-02-15T07:26:32;101867.91;;;1.50;70.02
36248;BME280;22287;50.824;5.644;2023-02-15T07:28:59;101867.16;;;1.46;69.64
36248;BME280;22287;50.824;5.644;2023-02-15T07:31:26;101869.13;;;1.69;69.18
36248;BME280;22287;50.824;5.644;2023-02-15T07:33:53;101868.06;;;1.74;69.49
36248;BME280;22287;50.824;5.644;2023-02-15T07:36:20;101869.47;;;1.86;68.80
36248;BME280;22287;50.824;5.644;2023-02-15T07:38:46;101864.75;;;1.96;68.34
36248;BME280;22287;50.824;5.644;2023-02-15T07:41:14;101865.81;;;2.18;68.45
36248;BME280;22287;50.824;5.644;2023-02-15T07:43:43;101864.63;;;2.26;68.36
36248;BME280;22287;50.824;5.644;2023-02-15T07:46:15;101860.03;;;2.31;68.23
36248;BME280;22287;50.824;5.644;2023-02-15T07:48:43;101857.63;;;2.49;67.86
36248;BME280;22287;50.824;5.644;2023-02-15T07:51:11;101857.22;;;2.61;67.35
36248;BME280;22287;50.824;5.644;2023-02-15T07:53:38;101852.59;;;2.66;67.54
36248;BME280;22287;50.824;5.644;2023-02-15T07:56:08;101856.72;;;2.76;67.20
36248;BME280;22287;50.824;5.644;2023-02-15T07:58:36;101852.69;;;2.89;67.50
36248;BME280;22287;50.824;5.644;2023-02-15T08:01:30;101852.38;;;2.98;67.62
36248;BME280;22287;50.824;5.644;2023-02-15T08:03:57;101853.34;;;3.20;67.79
36248;BME280;22287;50.824;5.644;2023-02-15T08:06:27;101850.66;;;3.67;67.07
36248;BME280;22287;50.824;5.644;2023-02-15T08:08:54;101848.34;;;3.58;67.66
36248;BME280;22287;50.824;5.644;2023-02-15T08:11:29;101845.91;;;3.96;68.33
36248;BME280;22287;50.824;5.644;2023-02-15T08:14:12;101841.03;;;3.84;67.05
36248;BME280;22287;50.824;5.644;2023-02-15T08:19:10;101850.03;;;4.05;67.43
36248;BME280;22287;50.824;5.644;2023-02-15T08:21:40;101833.59;;;4.36;69.05
36248;BME280;22287;50.824;5.644;2023-02-15T08:24:08;101832.03;;;4.30;68.34
36248;BME280;22287;50.824;5.644;2023-02-15T08:26:36;101836.56;;;4.28;68.13
36248;BME280;22287;50.824;5.644;2023-02-15T08:29:08;101839.44;;;4.02;68.01
36248;BME280;22287;50.824;5.644;2023-02-15T08:31:35;101832.72;;;4.35;68.15
36248;BME280;22287;50.824;5.644;2023-02-15T08:34:04;101826.34;;;4.80;69.33
36248;BME280;22287;50.824;5.644;2023-02-15T08:36:32;101823.06;;;5.32;69.46
36248;BME280;22287;50.824;5.644;2023-02-15T08:39:01;101828.84;;;5.03;69.17
36248;BME280;22287;50.824;5.644;2023-02-15T08:41:30;101827.00;;;5.05;67.91
36248;BME280;22287;50.824;5.644;2023-02-15T08:43:59;101822.72;;;5.19;69.78
36248;BME280;22287;50.824;5.644;2023-02-15T08:46:29;101824.22;;;5.26;70.02
36248;BME280;22287;50.824;5.644;2023-02-15T08:48:56;101820.91;;;5.40;69.01
36248;BME280;22287;50.824;5.644;2023-02-15T08:51:29;101813.03;;;5.17;69.01
36248;BME280;22287;50.824;5.644;2023-02-15T08:53:59;101822.19;;;5.50;69.38
36248;BME280;22287;50.824;5.644;2023-02-15T08:56:28;101820.13;;;6.13;68.45
36248;BME280;22287;50.824;5.644;2023-02-15T08:58:56;101824.84;;;5.52;69.23
36248;BME280;22287;50.824;5.644;2023-02-15T09:01:30;101812.53;;;5.85;69.16
36248;BME280;22287;50.824;5.644;2023-02-15T09:03:59;101814.31;;;5.84;68.62
36248;BME280;22287;50.824;5.644;2023-02-15T09:06:27;101808.88;;;6.05;67.32
36248;BME280;22287;50.824;5.644;2023-02-15T09:08:54;101811.19;;;6.65;66.17
36248;BME280;22287;50.824;5.644;2023-02-15T09:11:24;101812.88;;;6.49;66.36
36248;BME280;22287;50.824;5.644;2023-02-15T09:16:21;101802.78;;;6.37;67.60
36248;BME280;22287;50.824;5.644;2023-02-15T09:18:49;101800.75;;;6.59;67.01
36248;BME280;22287;50.824;5.644;2023-02-15T09:21:19;101790.75;;;6.44;65.80
36248;BME280;22287;50.824;5.644;2023-02-15T09:23:47;101795.41;;;6.92;66.58
36248;BME280;22287;50.824;5.644;2023-02-15T09:26:17;101792.31;;;6.99;66.18
36248;BME280;22287;50.824;5.644;2023-02-15T09:28:44;101790.59;;;6.98;65.83
36248;BME280;22287;50.824;5.644;2023-02-15T09:31:16;101792.88;;;7.39;65.68
36248;BME280;22287;50.824;5.644;2023-02-15T09:33:45;101802.66;;;7.07;66.29
36248;BME280;22287;50.824;5.644;2023-02-15T09:36:22;101808.91;;;6.90;66.73
36248;BME280;22287;50.824;5.644;2023-02-15T09:39:14;101805.16;;;6.77;67.39
36248;BME280;22287;50.824;5.644;2023-02-15T09:44:22;101808.94;;;7.56;65.74
36248;BME280;22287;50.824;5.644;2023-02-15T09:52:09;101815.91;;;7.91;65.47
36248;BME280;22287;50.824;5.644;2023-02-15T10:00:20;101806.59;;;8.12;65.22
36248;BME280;22287;50.824;5.644;2023-02-15T10:03:09;101811.09;;;8.12;65.26
36248;BME280;22287;50.824;5.644;2023-02-15T10:05:53;101809.69;;;8.52;64.81
36248;BME280;22287;50.824;5.644;2023-02-15T10:08:32;101804.44;;;9.08;64.69
36248;BME280;22287;50.824;5.644;2023-02-15T10:17:04;101819.84;;;9.20;63.76
36248;BME280;22287;50.824;5.644;2023-02-15T10:20:00;101818.31;;;9.73;62.41
36248;BME280;22287;50.824;5.644;2023-02-15T10:28:06;101811.44;;;9.81;61.73
36248;BME280;22287;50.824;5.644;2023-02-15T10:33:40;101814.97;;;10.24;59.98
36248;BME280;22287;50.824;5.644;2023-02-15T10:39:08;101812.84;;;10.42;59.80
36248;BME280;22287;50.824;5.644;2023-02-15T10:44:54;101801.69;;;10.73;57.49
36248;BME280;22287;50.824;5.644;2023-02-15T10:50:20;101810.72;;;11.37;57.63
36248;BME280;22287;50.824;5.644;2023-02-15T11:01:02;101797.38;;;11.84;53.62
36248;BME280;22287;50.824;5.644;2023-02-15T11:06:33;101780.50;;;12.28;53.36
36248;BME280;22287;50.824;5.644;2023-02-15T11:09:09;101791.06;;;12.20;54.09
36248;BME280;22287;50.824;5.644;2023-02-15T11:11:39;101786.69;;;12.30;53.66
36248;BME280;22287;50.824;5.644;2023-02-15T11:14:19;101793.38;;;12.37;53.50
36248;BME280;22287;50.824;5.644;2023-02-15T11:16:54;101782.97;;;12.55;52.39
36248;BME280;22287;50.824;5.644;2023-02-15T11:19:34;101786.13;;;12.72;52.30
36248;BME280;22287;50.824;5.644;2023-02-15T11:22:16;101787.19;;;12.59;51.83
36248;BME280;22287;50.824;5.644;2023-02-15T11:24:57;101783.78;;;12.79;51.63
36248;BME280;22287;50.824;5.644;2023-02-15T11:27:31;101777.50;;;13.24;51.20
36248;BME280;22287;50.824;5.644;2023-02-15T11:30:21;101777.63;;;13.12;51.72
36248;BME280;22287;50.824;5.644;2023-02-15T11:32:53;101777.75;;;13.32;50.93
36248;BME280;22287;50.824;5.644;2023-02-15T11:35:27;101769.84;;;13.51;51.22
36248;BME280;22287;50.824;5.644;2023-02-15T11:40:34;101754.03;;;13.34;51.98
36248;BME280;22287;50.824;5.644;2023-02-15T11:43:16;101751.94;;;13.60;50.65
36248;BME280;22287;50.824;5.644;2023-02-15T11:45:45;101745.16;;;13.54;50.92
36248;BME280;22287;50.824;5.644;2023-02-15T11:48:13;101747.38;;;13.61;52.02
36248;BME280;22287;50.824;5.644;2023-02-15T11:50:42;101743.78;;;13.82;49.75
36248;BME280;22287;50.824;5.644;2023-02-15T11:53:12;101741.22;;;14.12;49.18
36248;BME280;22287;50.824;5.644;2023-02-15T11:55:43;101738.09;;;13.74;49.62
36248;BME280;22287;50.824;5.644;2023-02-15T12:03:47;101732.19;;;13.80;51.21
36248;BME280;22287;50.824;5.644;2023-02-15T12:11:52;101706.84;;;14.11;49.97
36248;BME280;22287;50.824;5.644;2023-02-15T12:14:18;101712.94;;;14.04;50.78
36248;BME280;22287;50.824;5.644;2023-02-15T12:16:50;101709.09;;;14.06;49.06
36248;BME280;22287;50.824;5.644;2023-02-15T12:19:31;101708.28;;;14.38;47.81
36248;BME280;22287;50.824;5.644;2023-02-15T12:22:02;101705.50;;;14.49;49.87
36248;BME280;22287;50.824;5.644;2023-02-15T12:24:37;101706.75;;;14.45;49.32
36248;BME280;22287;50.824;5.644;2023-02-15T12:27:11;101700.72;;;14.62;49.11
36248;BME280;22287;50.824;5.644;2023-02-15T12:35:31;101703.38;;;14.21;49.62
36248;BME280;22287;50.824;5.644;2023-02-15T12:40:38;101694.03;;;14.13;50.54
36248;BME280;22287;50.824;5.644;2023-02-15T12:43:26;101693.88;;;14.15;49.42
36248;BME280;22287;50.824;5.644;2023-02-15T12:45:53;101693.19;;;14.34;49.96
36248;BME280;22287;50.824;5.644;2023-02-15T12:48:20;101687.09;;;14.09;48.82
36248;BME280;22287;50.824;5.644;2023-02-15T12:50:50;101689.16;;;14.69;48.75
36248;BME280;22287;50.824;5.644;2023-02-15T12:53:32;101685.13;;;14.43;49.25
36248;BME280;22287;50.824;5.644;2023-02-15T12:56:02;101683.78;;;14.58;48.55
36248;BME280;22287;50.824;5.644;2023-02-15T12:58:31;101679.47;;;14.56;48.61
36248;BME280;22287;50.824;5.644;2023-02-15T13:03:31;101667.53;;;14.68;47.47
36248;BME280;22287;50.824;5.644;2023-02-15T13:05:58;101670.88;;;14.19;48.33
36248;BME280;22287;50.824;5.644;2023-02-15T13:08:30;101673.97;;;14.67;47.10
36248;BME280;22287;50.824;5.644;2023-02-15T13:11:09;101655.69;;;14.99;47.50
36248;BME280;22287;50.824;5.644;2023-02-15T13:13:59;101653.97;;;14.78;47.13
36248;BME280;22287;50.824;5.644;2023-02-15T13:16:36;101651.75;;;14.09;49.48
36248;BME280;22287;50.824;5.644;2023-02-15T13:19:20;101654.19;;;14.65;49.38
36248;BME280;22287;50.824;5.644;2023-02-15T13:21:51;101650.22;;;14.69;49.83
36248;BME280;22287;50.824;5.644;2023-02-15T13:27:33;101655.88;;;14.36;51.07
36248;BME280;22287;50.824;5.644;2023-02-15T13:30:04;101648.50;;;14.68;49.93
36248;BME280;22287;50.824;5.644;2023-02-15T13:32:39;101653.25;;;14.13;52.04
36248;BME280;22287;50.824;5.644;2023-02-15T13:35:15;101654.09;;;14.46;51.33
36248;BME280;22287;50.824;5.644;2023-02-15T13:42:56;101651.63;;;14.63;48.88
36248;BME280;22287;50.824;5.644;2023-02-15T13:50:56;101642.78;;;13.98;52.08
36248;BME280;22287;50.824;5.644;2023-02-15T13:59:41;101642.84;;;14.19;50.61
36248;BME280;22287;50.824;5.644;2023-02-15T14:10:26;101636.41;;;14.61;50.02
36248;BME280;22287;50.824;5.644;2023-02-15T14:15:48;101637.94;;;14.75;51.50
36248;BME280;22287;50.824;5.644;2023-02-15T14:18:37;101637.94;;;14.75;51.17
36248;BME280;22287;50.824;5.644;2023-02-15T14:21:08;101637.97;;;14.33;52.29
36248;BME280;22287;50.824;5.644;2023-02-15T14:24:06;101641.88;;;13.77;52.65
36248;BME280;22287;50.824;5.644;2023-02-15T14:29:27;101628.44;;;14.28;51.83
36248;BME280;22287;50.824;5.644;2023-02-15T14:32:01;101620.66;;;14.55;52.39
36248;BME280;22287;50.824;5.644;2023-02-15T14:37:22;101616.22;;;14.33;53.16
36248;BME280;22287;50.824;5.644;2023-02-15T14:40:05;101613.50;;;14.33;54.42
36248;BME280;22287;50.824;5.644;2023-02-15T14:43:00;101612.38;;;14.04;53.61
36248;BME280;22287;50.824;5.644;2023-02-15T14:50:47;101619.66;;;14.03;53.70
36248;BME280;22287;50.824;5.644;2023-02-15T14:58:33;101615.63;;;13.66;55.32
36248;BME280;22287;50.824;5.644;2023-02-15T15:01:08;101616.16;;;14.12;55.35
36248;BME280;22287;50.824;5.644;2023-02-15T15:03:43;101613.81;;;13.56;56.05
36248;BME280;22287;50.824;5.644;2023-02-15T15:06:27;101624.22;;;14.03;55.89
36248;BME280;22287;50.824;5.644;2023-02-15T15:11:40;101624.00;;;13.74;56.75
36248;BME280;22287;50.824;5.644;2023-02-15T15:14:36;101626.84;;;13.62;56.22
36248;BME280;22287;50.824;5.644;2023-02-15T15:17:01;101632.25;;;13.73;55.15
36248;BME280;22287;50.824;5.644;2023-02-15T15:22:21;101625.63;;;13.66;55.91
36248;BME280;22287;50.824;5.644;2023-02-15T15:27:49;101624.75;;;13.65;55.60
36248;BME280;22287;50.824;5.644;2023-02-15T15:44:31;101638.78;;;12.83;57.88
36248;BME280;22287;50.824;5.644;2023-02-15T15:49:56;101636.63;;;12.42;59.21
36248;BME280;22287;50.824;5.644;2023-02-15T15:52:27;101637.13;;;12.36;59.56
36248;BME280;22287;50.824;5.644;2023-02-15T15:54:57;101627.34;;;12.22;59.98
36248;BME280;22287;50.824;5.644;2023-02-15T15:57:39;101633.63;;;12.23;60.01
36248;BME280;22287;50.824;5.644;2023-02-15T16:00:41;101633.22;;;12.16;60.16
36248;BME280;22287;50.824;5.644;2023-02-15T16:03:20;101639.31;;;11.96;60.97
36248;BME280;22287;50.824;5.644;2023-02-15T16:05:47;101630.91;;;11.64;62.07
36248;BME280;22287;50.824;5.644;2023-02-15T16:08:37;101638.38;;;11.73;61.40
36248;BME280;22287;50.824;5.644;2023-02-15T16:11:14;101636.59;;;11.96;60.50
36248;BME280;22287;50.824;5.644;2023-02-15T16:13:43;101635.44;;;11.88;60.79
36248;BME280;22287;50.824;5.644;2023-02-15T16:16:20;101636.84;;;11.69;61.36
36248;BME280;22287;50.824;5.644;2023-02-15T16:18:48;101637.94;;;11.91;60.36